Language: 


Des rapports , des résumés tant et plus, au choix de chacun....


Données statistiques de la station
Quotidien Rapport Mars 3, 2017 Unités:  Métrique    Anglais   les deux
« Précédent Jour
Suivant Jour »
Quotidien Hebdomadaire Mensuel Annuel Actuel
  Haut: Bas: Moyen:
Température: 12.2 °C 3.2 °C 7.8 °C
Pt de rosée: 8.0 °C 0.9 °C 4.9 °C
Humidité: 91 % 72 % 82 %
Vitesse du vent: 17.7 km/h 0.0 km/h 7.3 km/h
Rafales: 23.8 km/h - -
Vent:- - SSE
Pression: 1014.1 hPa 992.1 hPa -
Précipitation: 1.5 mm    
Historical Graphs
 
 
Données statistiques pour Mars 3, 2017
Heure Température Point de rosée Pression Vent Vitesse du vent Refales Humidité Pluie (taux horaire)
00:02 3.4 °C 1.2 °C 1014.1 hPa Calm   7.6 km/h 85 % 0.0 mm
00:07 3.6 °C 1.2 °C 1014.1 hPa Calm   7.6 km/h 85 % 0.0 mm
00:12 3.4 °C 1.2 °C 1014.1 hPa Calm   3.5 km/h 85 % 0.0 mm
00:17 3.3 °C 1.1 °C 1014.1 hPa Calm   4.0 km/h 85 % 0.0 mm
00:22 3.2 °C 0.9 °C 1013.1 hPa Calm   4.0 km/h 85 % 0.0 mm
00:27 3.2 °C 1.1 °C 1013.1 hPa Calm   2.6 km/h 86 % 0.0 mm
00:32 3.2 °C 1.1 °C 1013.1 hPa Calm   2.6 km/h 86 % 0.0 mm
00:37 3.2 °C 1.1 °C 1013.1 hPa Calm   4.0 km/h 86 % 0.0 mm
00:42 3.2 °C 1.1 °C 1013.1 hPa Calm   4.0 km/h 86 % 0.0 mm
00:47 3.3 °C 1.2 °C 1013.1 hPa South 1.8 km/h 6.4 km/h 86 % 0.0 mm
00:52 3.4 °C 1.3 °C 1013.1 hPa South 5.5 km/h 6.4 km/h 86 % 0.0 mm
00:57 3.6 °C 1.6 °C 1013.1 hPa SSW 3.5 km/h 6.1 km/h 87 % 0.0 mm
01:02 3.6 °C 1.7 °C 1013.1 hPa Calm   6.1 km/h 87 % 0.0 mm
01:07 3.6 °C 1.7 °C 1013.1 hPa South 5.5 km/h 10.1 km/h 87 % 0.0 mm
01:12 3.7 °C 1.8 °C 1013.1 hPa Calm   10.1 km/h 87 % 0.0 mm
01:17 3.8 °C 1.8 °C 1013.1 hPa Calm   5.5 km/h 87 % 0.0 mm
01:22 3.9 °C 1.9 °C 1013.1 hPa Calm   5.0 km/h 87 % 0.0 mm
01:27 3.9 °C 1.9 °C 1013.1 hPa South 4.0 km/h 5.8 km/h 87 % 0.0 mm
01:32 3.9 °C 1.9 °C 1013.1 hPa Calm   5.8 km/h 87 % 0.0 mm
01:37 3.9 °C 1.9 °C 1013.1 hPa South 5.0 km/h 5.8 km/h 87 % 0.0 mm
01:42 3.9 °C 1.9 °C 1013.1 hPa South 2.6 km/h 6.9 km/h 87 % 0.0 mm
01:47 4.0 °C 2.1 °C 1013.1 hPa Calm   7.2 km/h 87 % 0.0 mm
01:52 4.2 °C 2.2 °C 1013.1 hPa Calm   7.2 km/h 87 % 0.0 mm
01:57 4.2 °C 2.2 °C 1013.1 hPa South 1.8 km/h 5.8 km/h 87 % 0.0 mm
02:02 4.4 °C 2.4 °C 1013.1 hPa South 4.0 km/h 4.7 km/h 87 % 0.0 mm
02:07 4.5 °C 2.6 °C 1012.1 hPa Calm   9.7 km/h 87 % 0.0 mm
02:12 4.6 °C 2.6 °C 1012.1 hPa SSE 3.2 km/h 9.7 km/h 87 % 0.0 mm
02:17 4.7 °C 2.7 °C 1012.1 hPa SSE 6.9 km/h 10.5 km/h 87 % 0.0 mm
02:22 4.8 °C 2.8 °C 1012.1 hPa South 1.4 km/h 11.6 km/h 87 % 0.0 mm
02:27 4.8 °C 2.7 °C 1012.1 hPa SSE 8.7 km/h 11.6 km/h 86 % 0.0 mm
02:32 4.8 °C 2.7 °C 1012.1 hPa SSE 5.8 km/h 8.7 km/h 86 % 0.0 mm
02:37 4.8 °C 2.7 °C 1011.1 hPa Calm   9.3 km/h 86 % 0.0 mm
02:43 4.8 °C 2.5 °C 1011.1 hPa SSE 3.2 km/h 10.1 km/h 85 % 0.0 mm
02:48 4.8 °C 2.5 °C 1011.1 hPa South 5.5 km/h 12.2 km/h 85 % 0.0 mm
02:53 4.9 °C 2.6 °C 1010.0 hPa Calm   12.2 km/h 85 % 0.0 mm
02:57 4.8 °C 2.5 °C 1010.0 hPa South 7.9 km/h 10.5 km/h 85 % 0.0 mm
03:03 4.7 °C 2.4 °C 1010.0 hPa South 4.3 km/h 10.5 km/h 85 % 0.0 mm
03:08 4.7 °C 2.2 °C 1011.1 hPa South 5.5 km/h 8.7 km/h 84 % 0.0 mm
03:13 4.6 °C 2.1 °C 1011.1 hPa SSE 4.0 km/h 8.7 km/h 84 % 0.0 mm
03:18 4.5 °C 2.1 °C 1011.1 hPa SSE 5.0 km/h 8.7 km/h 84 % 0.0 mm
03:23 4.5 °C 2.1 °C 1011.1 hPa Calm   10.8 km/h 84 % 0.0 mm
03:28 4.5 °C 2.1 °C 1011.1 hPa Calm   10.8 km/h 84 % 0.0 mm
03:33 4.3 °C 1.8 °C 1011.1 hPa SSE 6.1 km/h 6.1 km/h 84 % 0.0 mm
03:38 4.3 °C 2.0 °C 1010.0 hPa SE 5.0 km/h 6.4 km/h 85 % 0.0 mm
03:43 4.3 °C 2.0 °C 1010.0 hPa South 9.3 km/h 9.3 km/h 85 % 0.0 mm
03:48 4.3 °C 2.0 °C 1010.0 hPa SE 6.1 km/h 9.3 km/h 85 % 0.0 mm
03:53 4.2 °C 1.9 °C 1010.0 hPa Calm   6.1 km/h 85 % 0.0 mm
03:58 4.2 °C 1.9 °C 1010.0 hPa Calm   7.6 km/h 85 % 0.0 mm
04:03 4.0 °C 1.7 °C 1010.0 hPa Calm   7.6 km/h 85 % 0.0 mm
04:08 3.9 °C 1.6 °C 1009.0 hPa ESE 6.4 km/h 6.4 km/h 85 % 0.0 mm
04:13 3.9 °C 1.6 °C 1009.0 hPa Calm   6.4 km/h 85 % 0.0 mm
04:18 3.8 °C 1.7 °C 1009.0 hPa Calm   6.4 km/h 86 % 0.0 mm
04:23 3.7 °C 1.6 °C 1009.0 hPa Calm   6.4 km/h 86 % 0.0 mm
04:28 3.6 °C 1.5 °C 1009.0 hPa Calm   5.5 km/h 86 % 0.0 mm
04:33 3.6 °C 1.4 °C 1009.0 hPa Calm     86 % 0.0 mm
04:38 3.3 °C 1.2 °C 1009.0 hPa Calm     86 % 0.0 mm
04:43 3.2 °C 1.1 °C 1009.0 hPa Calm     86 % 0.0 mm
04:48 3.2 °C 1.1 °C 1009.0 hPa Calm   6.1 km/h 86 % 0.0 mm
04:53 3.2 °C 1.3 °C 1009.0 hPa Calm   6.4 km/h 87 % 0.0 mm
04:58 3.2 °C 1.3 °C 1009.0 hPa Calm   6.4 km/h 87 % 0.0 mm
05:03 3.3 °C 1.4 °C 1009.0 hPa Calm   7.6 km/h 87 % 0.0 mm
05:08 3.3 °C 1.6 °C 1009.0 hPa SE 2.1 km/h 7.6 km/h 88 % 0.0 mm
05:13 3.3 °C 1.6 °C 1009.0 hPa Calm   4.3 km/h 88 % 0.0 mm
05:18 3.2 °C 1.4 °C 1009.0 hPa Calm   2.1 km/h 88 % 0.0 mm
05:23 3.3 °C 1.6 °C 1009.0 hPa Calm   4.7 km/h 88 % 0.0 mm
05:28 3.3 °C 1.7 °C 1009.0 hPa Calm   7.6 km/h 89 % 0.0 mm
05:33 3.4 °C 1.8 °C 1009.0 hPa ESE 4.7 km/h 7.6 km/h 89 % 0.0 mm
05:38 3.6 °C 1.9 °C 1010.0 hPa Calm   6.1 km/h 89 % 0.0 mm
05:43 3.6 °C 2.0 °C 1010.0 hPa SE 2.1 km/h 6.9 km/h 89 % 0.0 mm
05:48 3.6 °C 2.1 °C 1010.0 hPa ESE 5.0 km/h 6.9 km/h 90 % 0.0 mm
05:53 3.7 °C 2.2 °C 1009.0 hPa Calm   9.0 km/h 90 % 0.0 mm
05:58 3.9 °C 2.4 °C 1009.0 hPa SE 7.9 km/h 9.0 km/h 90 % 0.0 mm
06:03 3.9 °C 2.4 °C 1009.0 hPa ESE 6.1 km/h 9.3 km/h 90 % 0.0 mm
06:08 4.0 °C 2.5 °C 1008.0 hPa SE 2.1 km/h 9.3 km/h 90 % 0.0 mm
06:13 4.0 °C 2.5 °C 1008.0 hPa SE 4.7 km/h 10.1 km/h 90 % 0.0 mm
06:18 4.0 °C 2.4 °C 1008.0 hPa SE 6.9 km/h 10.1 km/h 89 % 0.0 mm
06:23 4.2 °C 2.6 °C 1007.0 hPa South 9.0 km/h 9.0 km/h 89 % 0.0 mm
06:28 4.2 °C 2.6 °C 1007.0 hPa SSE 6.4 km/h 12.2 km/h 89 % 0.0 mm
06:33 4.3 °C 2.7 °C 1007.0 hPa ESE 5.5 km/h 12.2 km/h 89 % 0.0 mm
06:38 4.3 °C 2.7 °C 1007.0 hPa ESE 5.5 km/h 9.7 km/h 89 % 0.0 mm
06:43 4.3 °C 2.7 °C 1007.0 hPa ESE 5.0 km/h 9.0 km/h 89 % 0.0 mm
06:48 4.3 °C 2.7 °C 1007.0 hPa SE 4.7 km/h 6.4 km/h 89 % 0.0 mm
06:53 4.4 °C 2.8 °C 1006.0 hPa SE 3.5 km/h 6.9 km/h 89 % 0.0 mm
06:58 4.5 °C 2.8 °C 1006.0 hPa Calm   7.9 km/h 89 % 0.0 mm
07:03 4.6 °C 2.9 °C 1006.0 hPa SSE 5.5 km/h 9.7 km/h 89 % 0.0 mm
07:08 4.7 °C 3.1 °C 1006.0 hPa SSE 4.0 km/h 9.7 km/h 89 % 0.0 mm
07:13 4.9 °C 3.1 °C 1006.0 hPa SSE 9.0 km/h 10.1 km/h 88 % 0.0 mm
07:18 4.9 °C 3.1 °C 1006.0 hPa SSE 3.5 km/h 10.1 km/h 88 % 0.0 mm
07:23 5.0 °C 3.2 °C 1007.0 hPa SSE 6.1 km/h 10.5 km/h 88 % 0.0 mm
07:28 5.2 °C 3.4 °C 1007.0 hPa ESE 10.1 km/h 10.5 km/h 88 % 0.0 mm
07:33 5.2 °C 3.2 °C 1007.0 hPa SSE 10.5 km/h 12.6 km/h 87 % 0.0 mm
07:38 5.3 °C 3.3 °C 1007.0 hPa SE 4.3 km/h 16.9 km/h 87 % 0.0 mm
07:43 5.5 °C 3.5 °C 1007.0 hPa SSW 13.7 km/h 16.9 km/h 87 % 0.0 mm
07:48 5.5 °C 3.3 °C 1007.0 hPa SSE 12.6 km/h 19.5 km/h 86 % 0.0 mm
07:53 5.6 °C 3.3 °C 1007.0 hPa South 9.3 km/h 19.5 km/h 85 % 0.0 mm
07:58 5.7 °C 3.3 °C 1007.0 hPa SE 4.7 km/h 13.7 km/h 85 % 0.0 mm
08:03 5.7 °C 3.2 °C 1007.0 hPa SSE 12.6 km/h 13.7 km/h 84 % 0.0 mm
08:08 5.8 °C 3.1 °C 1006.0 hPa South 13.7 km/h 15.4 km/h 83 % 0.0 mm
08:13 5.9 °C 3.1 °C 1006.0 hPa SE 15.4 km/h 19.8 km/h 82 % 0.0 mm
08:18 5.9 °C 2.9 °C 1006.0 hPa SSE 6.9 km/h 19.8 km/h 81 % 0.0 mm
08:23 6.0 °C 2.8 °C 1006.0 hPa ESE 10.1 km/h 16.9 km/h 80 % 0.0 mm
08:28 6.0 °C 2.9 °C 1006.0 hPa SSE 6.1 km/h 16.9 km/h 81 % 0.0 mm
08:33 6.0 °C 2.8 °C 1006.0 hPa SE 17.2 km/h 17.2 km/h 80 % 0.0 mm
08:38 6.1 °C 2.9 °C 1006.0 hPa ESE 5.8 km/h 18.3 km/h 80 % 0.0 mm
08:43 6.1 °C 2.7 °C 1006.0 hPa SSE 9.7 km/h 18.3 km/h 79 % 0.0 mm
08:48 6.1 °C 2.7 °C 1006.0 hPa SE 6.4 km/h 16.9 km/h 79 % 0.0 mm
08:53 6.1 °C 2.7 °C 1005.0 hPa SE 13.0 km/h 16.9 km/h 79 % 0.0 mm
08:58 6.1 °C 2.9 °C 1005.0 hPa SSE 10.1 km/h 16.6 km/h 80 % 0.0 mm
09:03 6.1 °C 2.9 °C 1005.0 hPa SSE 5.8 km/h 17.2 km/h 80 % 0.0 mm
09:08 6.1 °C 2.9 °C 1005.0 hPa SE 5.5 km/h 17.2 km/h 80 % 0.0 mm
09:13 6.1 °C 2.9 °C 1005.0 hPa SE 9.7 km/h 15.4 km/h 80 % 0.0 mm
09:18 6.1 °C 3.1 °C 1005.0 hPa SE 6.9 km/h 16.9 km/h 81 % 0.0 mm
09:23 6.1 °C 3.1 °C 1005.0 hPa SSE 12.2 km/h 16.9 km/h 81 % 0.0 mm
09:28 6.1 °C 3.1 °C 1005.0 hPa SE 13.0 km/h 16.3 km/h 81 % 0.0 mm
09:38 6.2 °C 3.2 °C 1005.0 hPa SSE 12.6 km/h 18.0 km/h 81 % 0.0 mm
09:43 6.3 °C 3.3 °C 1005.0 hPa SE 10.5 km/h 18.0 km/h 81 % 0.0 mm
09:48 6.3 °C 3.3 °C 1005.0 hPa SE 12.2 km/h 16.9 km/h 81 % 0.0 mm
09:53 6.4 °C 3.5 °C 1005.0 hPa SSE 9.0 km/h 16.9 km/h 82 % 0.0 mm
09:58 6.4 °C 3.4 °C 1005.0 hPa ESE 10.1 km/h 17.2 km/h 81 % 0.0 mm
10:03 6.6 °C 3.6 °C 1005.0 hPa SSE 17.7 km/h 17.7 km/h 81 % 0.0 mm
10:08 6.7 °C 3.6 °C 1003.9 hPa SSE 10.5 km/h 17.7 km/h 81 % 0.0 mm
10:13 6.8 °C 3.7 °C 1003.9 hPa SE 10.5 km/h 17.7 km/h 81 % 0.0 mm
10:18 6.8 °C 3.9 °C 1003.9 hPa SSE 16.3 km/h 16.6 km/h 82 % 0.0 mm
10:23 6.8 °C 3.9 °C 1003.9 hPa SSE 14.0 km/h 17.7 km/h 82 % 0.0 mm
10:28 6.8 °C 4.0 °C 1003.9 hPa SE 10.1 km/h 21.2 km/h 82 % 0.0 mm
10:34 6.8 °C 4.0 °C 1003.9 hPa South 10.5 km/h 21.2 km/h 82 % 0.0 mm
10:39 6.8 °C 4.0 °C 1002.9 hPa SSE 12.6 km/h 18.3 km/h 82 % 0.0 mm
10:44 6.8 °C 4.0 °C 1002.9 hPa SSE 9.3 km/h 17.7 km/h 82 % 0.0 mm
10:49 6.8 °C 4.0 °C 1002.9 hPa SE 10.1 km/h 17.7 km/h 82 % 0.0 mm
10:54 6.8 °C 4.0 °C 1002.9 hPa SE 7.2 km/h 17.7 km/h 82 % 0.0 mm
10:59 6.8 °C 4.1 °C 1002.9 hPa SSE 7.6 km/h 16.6 km/h 83 % 0.0 mm
11:04 6.8 °C 4.1 °C 1002.9 hPa SSE 9.7 km/h 16.6 km/h 83 % 0.0 mm
11:09 6.8 °C 4.1 °C 1002.9 hPa SSW 11.9 km/h 17.7 km/h 83 % 0.0 mm
11:14 6.8 °C 4.2 °C 1002.9 hPa SSE 9.0 km/h 17.7 km/h 83 % 0.0 mm
11:19 6.8 °C 4.2 °C 1002.9 hPa SSE 5.8 km/h 13.7 km/h 83 % 0.0 mm
11:23 6.8 °C 4.1 °C 1001.9 hPa South 4.0 km/h 13.7 km/h 83 % 0.3 mm
11:29 6.7 °C 4.2 °C 1001.9 hPa SSE 6.4 km/h 7.9 km/h 84 % 0.3 mm
11:34 6.7 °C 4.3 °C 1001.9 hPa SE 8.7 km/h 15.8 km/h 85 % 0.8 mm
11:38 6.6 °C 4.4 °C 1002.9 hPa ESE 5.0 km/h 15.8 km/h 86 % 1.3 mm
11:44 6.4 °C 4.4 °C 1002.9 hPa SE 9.0 km/h 15.8 km/h 87 % 1.5 mm
11:48 6.4 °C 4.4 °C 1002.9 hPa Calm   9.7 km/h 87 % 1.5 mm
11:53 6.6 °C 4.7 °C 1001.9 hPa SE 5.8 km/h 9.0 km/h 88 % 1.5 mm
11:59 6.8 °C 5.1 °C 1001.9 hPa SE 9.0 km/h 9.3 km/h 89 % 1.5 mm
12:03 6.9 °C 5.4 °C 1001.9 hPa ESE 8.7 km/h 10.5 km/h 90 % 1.5 mm
12:08 7.3 °C 6.0 °C 1001.9 hPa SE 6.4 km/h 12.2 km/h 91 % 1.5 mm
12:14 7.7 °C 6.3 °C 1001.9 hPa SE 6.9 km/h 12.2 km/h 91 % 1.5 mm
12:18 7.8 °C 6.3 °C 1001.9 hPa ESE 9.3 km/h 10.5 km/h 90 % 1.5 mm
12:23 7.9 °C 6.4 °C 1001.9 hPa SE 5.8 km/h 12.2 km/h 90 % 1.0 mm
12:28 8.1 °C 6.3 °C 1001.9 hPa SE 10.5 km/h 13.0 km/h 89 % 1.0 mm
12:33 8.2 °C 6.5 °C 1001.9 hPa SE 10.1 km/h 13.0 km/h 89 % 0.5 mm
12:38 8.4 °C 6.6 °C 1000.9 hPa SSE 8.7 km/h 12.2 km/h 88 % 0.3 mm
12:43 8.6 °C 6.6 °C 1000.9 hPa SSE 6.9 km/h 14.0 km/h 87 % 0.0 mm
12:48 8.6 °C 6.4 °C 1000.9 hPa SSE 17.2 km/h 17.2 km/h 86 % 0.0 mm
12:53 8.6 °C 6.4 °C 999.9 hPa South 9.3 km/h 17.2 km/h 86 % 0.0 mm
12:58 8.7 °C 6.5 °C 999.9 hPa SSE 7.9 km/h 13.7 km/h 86 % 0.0 mm
13:04 9.0 °C 6.6 °C 999.9 hPa South 12.2 km/h 13.7 km/h 85 % 0.0 mm
13:09 9.3 °C 6.9 °C 1000.9 hPa SSE 4.7 km/h 13.7 km/h 85 % 0.0 mm
13:13 9.5 °C 7.1 °C 1000.9 hPa SE 6.4 km/h 10.5 km/h 85 % 0.0 mm
13:18 9.7 °C 7.1 °C 1000.9 hPa SSE 9.7 km/h 14.8 km/h 84 % 0.0 mm
13:24 9.9 °C 7.2 °C 1000.9 hPa SSE 10.5 km/h 14.8 km/h 83 % 0.0 mm
13:28 10.0 °C 7.2 °C 1000.9 hPa SE 10.8 km/h 11.9 km/h 83 % 0.0 mm
13:33 10.2 °C 7.3 °C 1000.9 hPa SSE 10.1 km/h 11.9 km/h 82 % 0.0 mm
13:38 10.4 °C 7.3 °C 998.9 hPa SSE 9.3 km/h 12.6 km/h 81 % 0.0 mm
13:43 10.4 °C 7.1 °C 998.9 hPa South 10.8 km/h 12.6 km/h 80 % 0.0 mm
13:48 10.3 °C 6.6 °C 998.9 hPa SSE 7.2 km/h 13.7 km/h 78 % 0.0 mm
13:53 10.3 °C 6.6 °C 998.9 hPa South 10.8 km/h 13.7 km/h 78 % 0.0 mm
13:58 10.2 °C 6.3 °C 998.9 hPa SSE 9.0 km/h 13.7 km/h 77 % 0.0 mm
14:03 10.3 °C 6.4 °C 998.9 hPa SE 16.9 km/h 16.9 km/h 77 % 0.0 mm
14:04 10.3 °C 6.2 °C 998.9 hPa SE 11.9 km/h 16.9 km/h 76 % 0.0 mm
14:09 10.6 °C 6.9 °C 998.9 hPa South 6.4 km/h 16.9 km/h 78 % 0.0 mm
14:14 10.7 °C 6.8 °C 998.9 hPa South 9.3 km/h 14.0 km/h 77 % 0.0 mm
14:19 10.7 °C 6.6 °C 998.9 hPa South 8.7 km/h 14.3 km/h 76 % 0.0 mm
14:24 10.7 °C 6.6 °C 998.9 hPa SSE 8.7 km/h 14.3 km/h 76 % 0.0 mm
14:29 10.7 °C 6.6 °C 998.9 hPa SSE 9.0 km/h 13.7 km/h 76 % 0.0 mm
14:34 10.6 °C 6.5 °C 998.9 hPa SE 4.7 km/h 15.8 km/h 76 % 0.0 mm
14:39 10.6 °C 6.5 °C 998.9 hPa ESE 9.7 km/h 15.8 km/h 76 % 0.0 mm
14:44 10.7 °C 6.6 °C 998.9 hPa South 6.9 km/h 11.9 km/h 76 % 0.0 mm
14:49 10.8 °C 6.7 °C 998.9 hPa SSE 9.0 km/h 16.9 km/h 76 % 0.0 mm
14:54 10.9 °C 6.8 °C 997.9 hPa SE 5.8 km/h 16.9 km/h 76 % 0.0 mm
14:59 11.1 °C 7.2 °C 997.9 hPa SSE 4.0 km/h 12.6 km/h 77 % 0.0 mm
15:04 11.2 °C 7.1 °C 997.9 hPa SSE 9.0 km/h 13.7 km/h 76 % 0.0 mm
15:09 11.2 °C 7.1 °C 997.9 hPa SSE 9.7 km/h 16.3 km/h 76 % 0.0 mm
15:14 11.3 °C 7.2 °C 997.9 hPa South 10.5 km/h 16.3 km/h 76 % 0.0 mm
15:19 11.4 °C 7.1 °C 997.9 hPa SSE 6.1 km/h 16.9 km/h 75 % 0.0 mm
15:24 11.4 °C 7.1 °C 997.9 hPa South 10.8 km/h 16.9 km/h 75 % 0.0 mm
15:29 11.4 °C 7.1 °C 997.9 hPa SSE 11.6 km/h 17.7 km/h 75 % 0.0 mm
15:34 11.4 °C 6.9 °C 997.9 hPa SSE 12.6 km/h 17.7 km/h 74 % 0.0 mm
15:39 11.4 °C 7.0 °C 997.9 hPa SSE 9.0 km/h 17.7 km/h 74 % 0.0 mm
15:44 11.6 °C 7.1 °C 997.9 hPa SSE 14.0 km/h 17.7 km/h 74 % 0.0 mm
15:49 11.7 °C 7.4 °C 997.9 hPa South 5.8 km/h 15.4 km/h 75 % 0.0 mm
15:54 11.8 °C 7.3 °C 996.8 hPa SSE 8.7 km/h 15.1 km/h 74 % 0.0 mm
15:59 11.8 °C 7.4 °C 996.8 hPa SSE 13.7 km/h 16.6 km/h 74 % 0.0 mm
16:04 11.9 °C 7.4 °C 996.8 hPa SSW 11.6 km/h 16.6 km/h 74 % 0.0 mm
16:09 12.2 °C 7.4 °C 996.8 hPa South 16.9 km/h 20.6 km/h 73 % 0.0 mm
16:14 12.2 °C 7.3 °C 996.8 hPa South 9.7 km/h 20.6 km/h 72 % 0.0 mm
16:19 12.2 °C 7.6 °C 996.8 hPa SSE 11.9 km/h 19.1 km/h 73 % 0.0 mm
16:24 12.2 °C 7.3 °C 996.8 hPa SSE 10.1 km/h 17.2 km/h 72 % 0.0 mm
16:29 12.2 °C 7.3 °C 996.8 hPa SSE 14.0 km/h 23.8 km/h 72 % 0.0 mm
16:30 12.2 °C 7.3 °C 996.8 hPa SSE 17.2 km/h 23.8 km/h 72 % 0.0 mm
16:35 12.2 °C 7.3 °C 996.8 hPa SSE 9.0 km/h 23.8 km/h 72 % 0.0 mm
16:40 12.2 °C 7.3 °C 996.8 hPa SSE 16.3 km/h 21.2 km/h 72 % 0.0 mm
16:50 12.1 °C 7.2 °C 996.8 hPa SSE 10.5 km/h 19.5 km/h 72 % 0.0 mm
16:55 12.1 °C 7.2 °C 996.8 hPa South 12.2 km/h 19.5 km/h 72 % 0.0 mm
17:00 12.1 °C 7.2 °C 996.8 hPa SSE 13.0 km/h 20.1 km/h 72 % 0.0 mm
17:05 11.9 °C 7.1 °C 996.8 hPa South 9.7 km/h 20.1 km/h 72 % 0.0 mm
17:10 11.8 °C 7.2 °C 996.8 hPa South 9.7 km/h 18.3 km/h 73 % 0.0 mm
17:15 11.8 °C 7.1 °C 996.8 hPa SSE 12.2 km/h 23.8 km/h 73 % 0.0 mm
17:20 11.8 °C 7.1 °C 996.8 hPa SSE 16.6 km/h 23.8 km/h 73 % 0.0 mm
17:25 11.7 °C 7.2 °C 996.2 hPa South 10.5 km/h 20.9 km/h 74 % 0.0 mm
17:30 11.7 °C 7.2 °C 996.2 hPa South 7.9 km/h 18.0 km/h 74 % 0.0 mm
17:35 11.6 °C 7.1 °C 996.2 hPa SSE 10.5 km/h 20.6 km/h 74 % 0.0 mm
17:40 11.4 °C 7.0 °C 996.2 hPa SE 10.1 km/h 20.6 km/h 74 % 0.0 mm
17:45 11.4 °C 7.0 °C 996.2 hPa SSE 10.5 km/h 16.3 km/h 74 % 0.0 mm
17:50 11.4 °C 7.2 °C 996.2 hPa South 5.8 km/h 16.3 km/h 75 % 0.0 mm
17:55 11.4 °C 7.2 °C 996.2 hPa South 9.0 km/h 17.2 km/h 75 % 0.0 mm
18:00 11.4 °C 7.1 °C 996.2 hPa South 9.7 km/h 17.2 km/h 75 % 0.0 mm
18:05 11.4 °C 7.1 °C 996.2 hPa South 9.0 km/h 17.7 km/h 75 % 0.0 mm
18:10 11.4 °C 7.1 °C 995.1 hPa South 13.7 km/h 21.2 km/h 75 % 0.0 mm
18:15 11.3 °C 7.2 °C 995.1 hPa South 6.9 km/h 21.2 km/h 76 % 0.0 mm
18:17 11.3 °C 7.2 °C 995.1 hPa South 9.3 km/h 17.7 km/h 76 % 0.0 mm
18:22 11.3 °C 7.2 °C 995.1 hPa SSE 14.0 km/h 19.8 km/h 76 % 0.0 mm
18:27 11.3 °C 7.2 °C 996.2 hPa SSE 11.6 km/h 19.8 km/h 76 % 0.0 mm
18:32 11.2 °C 7.3 °C 996.2 hPa SSW 9.0 km/h 17.2 km/h 77 % 0.0 mm
18:37 11.2 °C 7.3 °C 996.2 hPa SSW 11.6 km/h 20.9 km/h 77 % 0.0 mm
18:42 11.2 °C 7.3 °C 996.2 hPa SSW 9.3 km/h 20.9 km/h 77 % 0.0 mm
18:47 11.2 °C 7.3 °C 996.2 hPa SSE 9.0 km/h 16.3 km/h 77 % 0.0 mm
18:52 11.2 °C 7.3 °C 996.2 hPa SE 6.9 km/h 16.3 km/h 77 % 0.0 mm
18:57 11.2 °C 7.3 °C 995.1 hPa South 10.1 km/h 17.7 km/h 77 % 0.0 mm
19:02 11.2 °C 7.3 °C 995.1 hPa SSW 5.8 km/h 17.7 km/h 77 % 0.0 mm
19:07 11.2 °C 7.3 °C 995.1 hPa SSE 16.3 km/h 16.3 km/h 77 % 0.0 mm
19:12 11.2 °C 7.3 °C 995.1 hPa South 10.1 km/h 19.8 km/h 77 % 0.0 mm
19:17 11.2 °C 7.3 °C 995.1 hPa SW 14.0 km/h 19.8 km/h 77 % 0.0 mm
19:22 11.2 °C 7.3 °C 995.1 hPa SSW 12.2 km/h 19.1 km/h 77 % 0.0 mm
19:27 11.2 °C 7.3 °C 995.1 hPa SSE 7.9 km/h 15.4 km/h 77 % 0.0 mm
19:32 11.2 °C 7.3 °C 995.1 hPa South 9.3 km/h 13.7 km/h 77 % 0.0 mm
19:37 11.2 °C 7.3 °C 995.1 hPa SSW 11.6 km/h 13.7 km/h 77 % 0.0 mm
19:42 11.1 °C 7.2 °C 994.1 hPa WSW 8.7 km/h 15.4 km/h 77 % 0.0 mm
19:47 11.1 °C 7.4 °C 994.1 hPa South 9.7 km/h 15.4 km/h 78 % 0.0 mm
19:52 11.0 °C 7.3 °C 994.1 hPa South 12.6 km/h 15.1 km/h 78 % 0.0 mm
19:57 11.0 °C 7.3 °C 995.1 hPa South 11.9 km/h 14.8 km/h 78 % 0.0 mm
20:02 11.0 °C 7.3 °C 995.1 hPa South 10.5 km/h 14.8 km/h 78 % 0.0 mm
20:07 11.0 °C 7.3 °C 995.1 hPa SSE 6.4 km/h 19.8 km/h 78 % 0.0 mm
20:12 11.1 °C 7.6 °C 995.1 hPa South 6.9 km/h 19.8 km/h 79 % 0.0 mm
20:17 11.1 °C 7.4 °C 995.1 hPa South 13.7 km/h 21.2 km/h 78 % 0.0 mm
20:22 11.0 °C 7.3 °C 995.1 hPa South 8.7 km/h 21.2 km/h 78 % 0.0 mm
20:27 11.0 °C 7.5 °C 995.1 hPa SSW 7.9 km/h 17.7 km/h 79 % 0.0 mm
20:32 11.0 °C 7.5 °C 995.1 hPa South 11.6 km/h 19.8 km/h 79 % 0.0 mm
20:37 11.0 °C 7.5 °C 994.1 hPa SSE 12.2 km/h 19.8 km/h 79 % 0.0 mm
20:42 11.0 °C 7.5 °C 994.1 hPa South 15.8 km/h 17.7 km/h 79 % 0.0 mm
20:47 11.0 °C 7.5 °C 994.1 hPa SSE 15.8 km/h 16.9 km/h 79 % 0.0 mm
20:52 11.0 °C 7.5 °C 994.1 hPa SSE 10.1 km/h 16.3 km/h 79 % 0.0 mm
20:57 10.9 °C 7.4 °C 994.1 hPa SSE 13.7 km/h 17.2 km/h 79 % 0.0 mm
21:02 10.9 °C 7.4 °C 994.1 hPa SSE 10.1 km/h 20.6 km/h 79 % 0.0 mm
21:07 10.9 °C 7.6 °C 994.1 hPa South 9.0 km/h 20.9 km/h 80 % 0.0 mm
21:12 10.7 °C 7.4 °C 994.1 hPa SSW 12.2 km/h 20.9 km/h 80 % 0.0 mm
21:17 10.7 °C 7.4 °C 994.1 hPa SSW 6.4 km/h 14.0 km/h 80 % 0.0 mm
21:22 10.6 °C 7.4 °C 994.1 hPa South 6.9 km/h 15.4 km/h 81 % 0.0 mm
21:27 10.5 °C 7.4 °C 994.1 hPa South 9.0 km/h 17.7 km/h 81 % 0.0 mm
21:32 10.4 °C 7.3 °C 994.1 hPa South 8.7 km/h 17.7 km/h 81 % 0.0 mm
21:37 10.4 °C 7.4 °C 994.1 hPa SSE 7.9 km/h 13.0 km/h 82 % 0.0 mm
21:42 10.3 °C 7.3 °C 994.1 hPa SSE 7.9 km/h 12.6 km/h 82 % 0.0 mm
21:47 10.3 °C 7.3 °C 994.1 hPa SSE 4.3 km/h 13.0 km/h 82 % 0.0 mm
21:52 10.3 °C 7.3 °C 994.1 hPa SSE 5.8 km/h 13.0 km/h 82 % 0.0 mm
21:57 10.3 °C 7.6 °C 994.1 hPa SSE 5.5 km/h 14.0 km/h 83 % 0.0 mm
22:02 10.3 °C 7.6 °C 994.1 hPa South 7.6 km/h 15.8 km/h 83 % 0.0 mm
22:07 10.4 °C 7.6 °C 993.1 hPa SSE 5.0 km/h 15.8 km/h 83 % 0.0 mm
22:12 10.5 °C 7.7 °C 993.1 hPa South 9.3 km/h 12.6 km/h 83 % 0.0 mm
22:17 10.5 °C 7.9 °C 993.1 hPa SSE 12.6 km/h 12.6 km/h 84 % 0.0 mm
22:22 10.6 °C 8.0 °C 992.1 hPa SSE 14.0 km/h 16.9 km/h 84 % 0.0 mm
22:27 10.6 °C 8.0 °C 992.1 hPa SSE 9.0 km/h 16.9 km/h 84 % 0.0 mm
22:32 10.6 °C 7.8 °C 992.1 hPa SSE 5.8 km/h 14.8 km/h 83 % 0.0 mm
22:37 10.6 °C 7.8 °C 993.1 hPa SSE 6.9 km/h 14.0 km/h 83 % 0.0 mm
22:42 10.6 °C 7.8 °C 993.1 hPa SSE 6.9 km/h 15.4 km/h 83 % 0.0 mm
22:47 10.5 °C 7.7 °C 993.1 hPa SSW 4.3 km/h 15.4 km/h 83 % 0.0 mm
22:52 10.5 °C 7.7 °C 993.1 hPa South 6.4 km/h 9.0 km/h 83 % 0.0 mm
22:57 10.4 °C 7.6 °C 993.1 hPa Calm   9.0 km/h 83 % 0.0 mm
23:02 10.2 °C 7.4 °C 993.1 hPa Calm   4.0 km/h 83 % 0.0 mm
23:07 10.2 °C 7.4 °C 993.1 hPa Calm   4.3 km/h 83 % 0.0 mm
23:12 10.3 °C 7.7 °C 993.1 hPa Calm   4.3 km/h 84 % 0.0 mm
23:17 10.3 °C 7.7 °C 993.1 hPa SSE 1.4 km/h 4.0 km/h 84 % 0.0 mm
23:22 10.3 °C 7.7 °C 993.1 hPa SSE 2.1 km/h 7.2 km/h 84 % 0.0 mm
23:27 10.2 °C 7.6 °C 993.1 hPa SSW 7.6 km/h 9.3 km/h 84 % 0.0 mm
23:32 10.3 °C 7.7 °C 993.1 hPa South 6.4 km/h 13.0 km/h 84 % 0.0 mm
23:37 10.4 °C 7.8 °C 993.1 hPa SSE 4.7 km/h 13.0 km/h 84 % 0.0 mm
23:42 10.4 °C 7.8 °C 993.1 hPa SSE 2.6 km/h 10.1 km/h 84 % 0.0 mm
23:47 10.3 °C 7.7 °C 993.1 hPa South 10.1 km/h 10.1 km/h 84 % 0.0 mm
23:53 10.4 °C 7.8 °C 993.1 hPa SSW 9.3 km/h 12.2 km/h 84 % 0.0 mm
23:58 10.4 °C 7.8 °C 993.1 hPa South 5.5 km/h 12.2 km/h 84 % 0.0 mm
Le Gheer Warneton
Courtoisie de Weather Underground - 2.5 mb

Mise a jour : 17-12-17 07:08:12
Généré par Cumulus 1.9.4 (1099)